Time;durP1;ratioP1;P1;durP2;ratioP2;P2;SDS_P1;SDS_P2;PMS_P1;PMS_P2;Temp;Humidity;BMP_temperature;BMP_pressure;BME280_temperature;BME280_humidity;BME280_pressure;Samples;Min_cycle;Max_cycle;Signal;HPM_P1;HPM_P2
2023/01/02 00:01:12;;;;;;;11.02;4.53;;;;;;;;;;5072797;28;20024;-81
2023/01/02 00:03:37;;;;;;;9.77;3.58;;;;;;;;;;5072863;28;20016;-80
2023/01/02 00:06:03;;;;;;;14.00;3.78;;;;;;;;;;5074524;28;20112;-80
2023/01/02 00:08:29;;;;;;;8.15;2.58;;;;;;;;;;5057902;28;20028;-80
2023/01/02 00:10:54;;;;;;;11.63;4.72;;;;;;;;;;5055342;28;20033;-80
2023/01/02 00:13:19;;;;;;;9.88;4.40;;;;;;;;;;5074069;28;20052;-81
2023/01/02 00:15:44;;;;;;;9.65;3.80;;;;;;;;;;5074114;28;20027;-80
2023/01/02 00:18:09;;;;;;;11.40;3.42;;;;;;;;;;5073541;28;20020;-80
2023/01/02 00:20:34;;;;;;;13.27;4.00;;;;;;;;;;5072907;28;20054;-80
2023/01/02 00:23:00;;;;;;;10.85;4.03;;;;;;;;;;5068560;28;20469;-80
2023/01/02 00:25:25;;;;;;;16.55;5.85;;;;;;;;;;5054382;28;20017;-80
2023/01/02 00:27:50;;;;;;;24.20;4.63;;;;;;;;;;5067351;28;20051;-80
2023/01/02 00:30:15;;;;;;;7.78;2.83;;;;;;;;;;5074229;28;20017;-80
2023/01/02 00:32:40;;;;;;;11.75;2.97;;;;;;;;;;5072318;28;20055;-80
2023/01/02 00:35:06;;;;;;;19.85;3.35;;;;;;;;;;5072279;28;20302;-80
2023/01/02 00:37:31;;;;;;;16.45;4.85;;;;;;;;;;5072503;28;20024;-80
2023/01/02 00:39:56;;;;;;;8.60;2.22;;;;;;;;;;5061657;28;20029;-80
2023/01/02 00:42:22;;;;;;;25.63;10.35;;;;;;;;;;5072297;28;20020;-80
2023/01/02 00:44:47;;;;;;;18.02;6.00;;;;;;;;;;5065364;28;20432;-80
2023/01/02 00:47:12;;;;;;;15.13;5.85;;;;;;;;;;5072226;28;20017;-80
2023/01/02 00:49:37;;;;;;;9.48;4.65;;;;;;;;;;5072631;28;20035;-81
2023/01/02 00:52:02;;;;;;;12.48;4.25;;;;;;;;;;5072122;28;20051;-80
2023/01/02 00:54:28;;;;;;;10.73;2.80;;;;;;;;;;5072460;28;20111;-81
2023/01/02 00:56:53;;;;;;;13.30;3.55;;;;;;;;;;5067965;28;20029;-81
2023/01/02 00:59:18;;;;;;;8.57;3.10;;;;;;;;;;5069966;28;20017;-81
2023/01/02 01:01:43;;;;;;;11.05;3.17;;;;;;;;;;5073546;28;20017;-80
2023/01/02 01:04:08;;;;;;;10.95;2.67;;;;;;;;;;5071764;28;20023;-80
2023/01/02 01:06:33;;;;;;;14.40;3.38;;;;;;;;;;5071862;28;20056;-80
2023/01/02 01:08:59;;;;;;;6.43;2.03;;;;;;;;;;5073390;28;20024;-80
2023/01/02 01:11:24;;;;;;;10.90;2.60;;;;;;;;;;5071671;28;20031;-81
2023/01/02 01:13:50;;;;;;;11.27;3.15;;;;;;;;;;5071666;28;20031;-81
2023/01/02 01:16:16;;;;;;;14.82;3.30;;;;;;;;;;5052744;28;20031;-80
2023/01/02 01:18:41;;;;;;;11.65;3.30;;;;;;;;;;5051673;28;20059;-80
2023/01/02 01:21:08;;;;;;;10.52;3.75;;;;;;;;;;5067161;28;20099;-80
2023/01/02 01:23:33;;;;;;;7.97;3.08;;;;;;;;;;5071411;28;20716;-80
2023/01/02 01:25:58;;;;;;;12.40;3.33;;;;;;;;;;5071606;28;20024;-80
2023/01/02 01:28:23;;;;;;;6.18;1.83;;;;;;;;;;5071388;28;20036;-80
2023/01/02 01:30:48;;;;;;;10.48;3.40;;;;;;;;;;5071702;28;20020;-80
2023/01/02 01:33:13;;;;;;;8.73;3.05;;;;;;;;;;5060127;28;20014;-81
2023/01/02 01:35:39;;;;;;;7.97;2.65;;;;;;;;;;5072944;28;20150;-80
2023/01/02 01:38:04;;;;;;;5.32;1.80;;;;;;;;;;5072414;28;20044;-80
2023/01/02 01:40:35;;;;;;;6.40;3.17;;;;;;;;;;5071974;28;20360;-80
2023/01/02 01:43:00;;;;;;;8.50;3.00;;;;;;;;;;5071063;28;20020;-80
2023/01/02 01:45:26;;;;;;;12.23;2.95;;;;;;;;;;5064181;28;20021;-80
2023/01/02 01:47:55;;;;;;;11.43;3.35;;;;;;;;;;5072295;28;20460;-80
2023/01/02 01:50:23;;;;;;;10.88;3.22;;;;;;;;;;5067487;28;20070;-81
2023/01/02 01:52:52;;;;;;;6.43;2.92;;;;;;;;;;5070858;28;20042;-81
2023/01/02 01:55:19;;;;;;;3.88;1.25;;;;;;;;;;5072448;28;20021;-80
2023/01/02 01:58:04;;;;;;;14.20;3.28;;;;;;;;;;5070723;28;20023;-80
2023/01/02 02:00:30;;;;;;;10.13;2.80;;;;;;;;;;5070640;28;20453;-81
2023/01/02 02:02:56;;;;;;;9.32;2.67;;;;;;;;;;5071636;28;20111;-80
2023/01/02 02:05:24;;;;;;;10.88;3.08;;;;;;;;;;5070863;28;20020;-81
2023/01/02 02:07:58;;;;;;;15.52;3.67;;;;;;;;;;5064935;28;20021;-80
2023/01/02 02:10:23;;;;;;;11.02;2.78;;;;;;;;;;5062136;28;20751;-81
2023/01/02 02:12:48;;;;;;;13.43;2.83;;;;;;;;;;5070338;28;20029;-81
2023/01/02 02:15:16;;;;;;;11.77;3.08;;;;;;;;;;5070731;28;20035;-80
2023/01/02 02:17:45;;;;;;;14.10;2.65;;;;;;;;;;5071434;28;20055;-80
2023/01/02 02:20:29;;;;;;;8.68;2.58;;;;;;;;;;5070508;28;20151;-80
2023/01/02 02:23:15;;;;;;;8.27;2.75;;;;;;;;;;5069713;28;20357;-80
2023/01/02 02:25:40;;;;;;;7.25;2.80;;;;;;;;;;5065264;28;20159;-80
2023/01/02 02:28:17;;;;;;;14.05;2.60;;;;;;;;;;5066937;28;20032;-80
2023/01/02 02:30:46;;;;;;;9.35;2.85;;;;;;;;;;5070510;28;20039;-80
2023/01/02 02:33:11;;;;;;;7.78;2.90;;;;;;;;;;5070110;28;20036;-80
2023/01/02 02:35:49;;;;;;;11.88;2.85;;;;;;;;;;5071861;28;20016;-80
2023/01/02 02:38:18;;;;;;;9.88;3.10;;;;;;;;;;5064658;28;20025;-80
2023/01/02 02:40:49;;;;;;;8.32;2.70;;;;;;;;;;5070166;28;20028;-81
2023/01/02 02:43:25;;;;;;;9.15;3.17;;;;;;;;;;5069896;28;20036;-80
2023/01/02 02:45:50;;;;;;;11.27;2.83;;;;;;;;;;5064804;28;20464;-80
2023/01/02 02:48:20;;;;;;;8.13;3.28;;;;;;;;;;5071017;28;20019;-80
2023/01/02 02:50:57;;;;;;;9.40;2.90;;;;;;;;;;5071331;28;20043;-80
2023/01/02 02:53:23;;;;;;;12.65;3.63;;;;;;;;;;5067393;28;20016;-80
2023/01/02 02:55:56;;;;;;;10.55;2.83;;;;;;;;;;5095427;28;20025;-81
2023/01/02 02:58:23;;;;;;;9.30;3.33;;;;;;;;;;5064393;28;20536;-80
2023/01/02 03:00:48;;;;;;;9.10;2.63;;;;;;;;;;5069815;28;20043;-80
2023/01/02 03:03:22;;;;;;;12.65;3.22;;;;;;;;;;5071080;28;20021;-80
2023/01/02 03:05:50;;;;;;;8.48;2.88;;;;;;;;;;5071624;28;20016;-81
2023/01/02 03:08:21;;;;;;;11.35;2.65;;;;;;;;;;5071339;28;20044;-80
2023/01/02 03:10:46;;;;;;;13.60;3.10;;;;;;;;;;5069955;28;20104;-80
2023/01/02 03:13:24;;;;;;;15.93;3.50;;;;;;;;;;5066356;28;20111;-80
2023/01/02 03:15:52;;;;;;;6.28;2.58;;;;;;;;;;5070123;28;20017;-81
2023/01/02 03:18:20;;;;;;;10.57;3.30;;;;;;;;;;5069569;28;20044;-80
2023/01/02 03:20:56;;;;;;;14.77;3.33;;;;;;;;;;5070006;28;20332;-80
2023/01/02 03:23:23;;;;;;;8.50;2.88;;;;;;;;;;5069880;28;20036;-81
2023/01/02 03:25:48;;;;;;;7.35;2.70;;;;;;;;;;5071211;28;20418;-81
2023/01/02 03:28:15;;;;;;;7.68;3.00;;;;;;;;;;5069675;28;20107;-81
2023/01/02 03:30:41;;;;;;;11.25;2.83;;;;;;;;;;5056646;28;20052;-80
2023/01/02 03:33:09;;;;;;;12.43;2.20;;;;;;;;;;5069691;28;20024;-81
2023/01/02 03:35:46;;;;;;;14.38;3.03;;;;;;;;;;5069803;28;20123;-81
2023/01/02 03:38:14;;;;;;;5.38;2.20;;;;;;;;;;5069776;28;20107;-81
2023/01/02 03:40:47;;;;;;;11.50;2.70;;;;;;;;;;5069754;28;20020;-81
2023/01/02 03:43:23;;;;;;;9.50;2.30;;;;;;;;;;5070799;28;20081;-81
2023/01/02 03:46:05;;;;;;;7.25;2.97;;;;;;;;;;5070575;28;20017;-81
2023/01/02 03:48:36;;;;;;;11.45;2.53;;;;;;;;;;5063156;28;20410;-80
2023/01/02 03:51:02;;;;;;;7.43;2.15;;;;;;;;;;5070673;28;20020;-81
2023/01/02 03:53:27;;;;;;;5.75;2.00;;;;;;;;;;5069128;28;20021;-80
2023/01/02 03:56:00;;;;;;;10.07;2.63;;;;;;;;;;5103302;28;20723;-81
2023/01/02 03:58:52;;;;;;;6.07;2.15;;;;;;;;;;5069557;28;20476;-80
2023/01/02 04:01:32;;;;;;;8.10;2.70;;;;;;;;;;5061296;28;20496;-80
2023/01/02 04:04:05;;;;;;;6.50;2.80;;;;;;;;;;5071068;28;20033;-80
2023/01/02 04:06:33;;;;;;;7.93;2.47;;;;;;;;;;5057688;28;20021;-80
2023/01/02 04:09:19;;;;;;;5.85;2.10;;;;;;;;;;5073156;28;20017;-80
2023/01/02 04:11:46;;;;;;;9.68;2.08;;;;;;;;;;5072903;28;20016;-80
2023/01/02 04:14:15;;;;;;;9.18;2.35;;;;;;;;;;5072969;28;20012;-81
2023/01/02 04:16:43;;;;;;;9.43;2.28;;;;;;;;;;5074143;28;20028;-80
2023/01/02 04:19:11;;;;;;;9.30;2.28;;;;;;;;;;5073980;28;20383;-80
2023/01/02 04:21:38;;;;;;;10.80;2.42;;;;;;;;;;5072775;28;20025;-80
2023/01/02 04:24:06;;;;;;;7.85;2.00;;;;;;;;;;5065835;28;20024;-81
2023/01/02 04:26:41;;;;;;;6.65;2.40;;;;;;;;;;5070526;28;20058;-81
2023/01/02 04:29:06;;;;;;;11.25;2.35;;;;;;;;;;5047665;28;20393;-81
2023/01/02 04:31:42;;;;;;;7.13;2.38;;;;;;;;;;5072526;28;20027;-81
2023/01/02 04:34:10;;;;;;;9.35;2.17;;;;;;;;;;5072602;28;20012;-81
2023/01/02 04:36:38;;;;;;;6.10;2.20;;;;;;;;;;5074148;28;20036;-81
2023/01/02 04:39:03;;;;;;;5.35;2.53;;;;;;;;;;5072354;28;20031;-81
2023/01/02 04:41:29;;;;;;;7.65;2.15;;;;;;;;;;5069239;28;20103;-81
2023/01/02 04:43:55;;;;;;;8.65;2.45;;;;;;;;;;5070098;28;20365;-81
2023/01/02 04:46:20;;;;;;;15.07;2.35;;;;;;;;;;5059515;28;20028;-81
2023/01/02 04:48:45;;;;;;;4.78;2.08;;;;;;;;;;5072423;28;20488;-81
2023/01/02 04:51:10;;;;;;;9.45;2.17;;;;;;;;;;5072421;28;20423;-80
2023/01/02 04:53:36;;;;;;;5.95;2.13;;;;;;;;;;5073163;28;20089;-80
2023/01/02 04:56:01;;;;;;;4.88;2.05;;;;;;;;;;5072005;28;20476;-80
2023/01/02 04:58:26;;;;;;;6.57;2.08;;;;;;;;;;5067182;28;20021;-81
2023/01/02 05:00:52;;;;;;;7.18;1.80;;;;;;;;;;5069704;28;20020;-80
2023/01/02 05:03:17;;;;;;;8.07;2.08;;;;;;;;;;5071813;28;20464;-80
2023/01/02 05:05:42;;;;;;;6.68;2.08;;;;;;;;;;5072134;28;20028;-80
2023/01/02 05:08:07;;;;;;;7.68;1.92;;;;;;;;;;5073280;28;20016;-80
2023/01/02 05:10:33;;;;;;;8.75;2.15;;;;;;;;;;5072185;28;20434;-81
2023/01/02 05:12:58;;;;;;;7.78;2.22;;;;;;;;;;5071574;28;20112;-81
2023/01/02 05:15:23;;;;;;;5.18;2.20;;;;;;;;;;5070642;28;20353;-80
2023/01/02 05:17:49;;;;;;;6.25;1.75;;;;;;;;;;5056154;28;20048;-80
2023/01/02 05:20:14;;;;;;;10.85;2.25;;;;;;;;;;5067969;28;20020;-80
2023/01/02 05:25:24;;;;;;;5.72;2.20;;;;;;;;;;5072926;28;20082;-80
2023/01/02 05:27:53;;;;;;;7.72;2.10;;;;;;;;;;5072960;28;20024;-80
2023/01/02 05:30:18;;;;;;;6.32;1.90;;;;;;;;;;5071232;28;20455;-81
2023/01/02 05:32:43;;;;;;;9.77;2.10;;;;;;;;;;5063070;28;20070;-80
2023/01/02 05:35:09;;;;;;;12.68;2.72;;;;;;;;;;5065679;28;20025;-80
2023/01/02 05:37:34;;;;;;;9.02;1.88;;;;;;;;;;5067316;28;20024;-80
2023/01/02 05:39:59;;;;;;;9.95;1.85;;;;;;;;;;5061675;28;20504;-80
2023/01/02 05:42:24;;;;;;;8.32;2.25;;;;;;;;;;5070795;28;20420;-80
2023/01/02 05:44:51;;;;;;;4.72;1.80;;;;;;;;;;5058540;28;20017;-80
2023/01/02 05:47:16;;;;;;;7.10;1.75;;;;;;;;;;5062972;28;20135;-80
2023/01/02 05:49:41;;;;;;;6.00;1.80;;;;;;;;;;5058907;28;20040;-80
2023/01/02 05:52:06;;;;;;;7.55;2.13;;;;;;;;;;5070798;28;20025;-80
2023/01/02 05:54:31;;;;;;;9.68;2.22;;;;;;;;;;5070861;28;20602;-80
2023/01/02 05:56:57;;;;;;;5.18;1.75;;;;;;;;;;5072265;28;20017;-80
2023/01/02 05:59:22;;;;;;;6.07;1.92;;;;;;;;;;5070554;28;20021;-80
2023/01/02 06:01:47;;;;;;;6.18;1.52;;;;;;;;;;5070650;28;20047;-80
2023/01/02 06:04:12;;;;;;;3.92;1.85;;;;;;;;;;5072268;28;20526;-80
2023/01/02 06:06:38;;;;;;;4.15;1.67;;;;;;;;;;5064349;28;20024;-80
2023/01/02 06:09:05;;;;;;;8.25;1.98;;;;;;;;;;5070230;28;20112;-80
2023/01/02 06:11:30;;;;;;;5.30;1.70;;;;;;;;;;5070493;28;20464;-80
2023/01/02 06:13:55;;;;;;;2.83;1.27;;;;;;;;;;5071862;28;20040;-80
2023/01/02 06:16:21;;;;;;;4.28;1.20;;;;;;;;;;5070697;28;20457;-80
2023/01/02 06:18:47;;;;;;;4.18;1.48;;;;;;;;;;5071456;28;20415;-80
2023/01/02 06:21:13;;;;;;;4.90;1.30;;;;;;;;;;5070708;28;20059;-80
2023/01/02 06:23:39;;;;;;;6.10;1.42;;;;;;;;;;5061168;28;20027;-79
2023/01/02 06:26:05;;;;;;;2.85;1.20;;;;;;;;;;5060066;28;20021;-80
2023/01/02 06:28:31;;;;;;;3.08;0.88;;;;;;;;;;5070379;28;20027;-80
2023/01/02 06:31:03;;;;;;;2.58;1.00;;;;;;;;;;5070490;28;20008;-80
2023/01/02 06:33:29;;;;;;;2.10;1.10;;;;;;;;;;5070126;28;20055;-80
2023/01/02 06:35:58;;;;;;;1.63;1.00;;;;;;;;;;5070153;28;20059;-80
2023/01/02 06:38:23;;;;;;;4.47;1.02;;;;;;;;;;5070357;28;20069;-80
2023/01/02 06:40:56;;;;;;;3.42;1.20;;;;;;;;;;5061760;28;20774;-80
2023/01/02 06:43:21;;;;;;;;;;;;;;;;;;5070573;28;20023;-80
2023/01/02 06:45:46;;;;;;;2.83;0.90;;;;;;;;;;5059058;28;19908;-80
2023/01/02 06:48:11;;;;;;;1.17;0.82;;;;;;;;;;5070297;28;20242;-80
2023/01/02 06:50:37;;;;;;;0.95;0.68;;;;;;;;;;5071358;28;20012;-80
2023/01/02 06:53:02;;;;;;;0.77;0.60;;;;;;;;;;5071046;28;20475;-80
2023/01/02 06:55:27;;;;;;;1.00;0.90;;;;;;;;;;5070056;28;20054;-80
2023/01/02 06:57:52;;;;;;;3.05;0.90;;;;;;;;;;5068823;28;20019;-80
2023/01/02 07:00:17;;;;;;;1.00;0.70;;;;;;;;;;5058509;28;20446;-80
2023/01/02 07:02:43;;;;;;;1.40;1.10;;;;;;;;;;5054052;28;20021;-80
2023/01/02 07:05:09;;;;;;;1.10;0.85;;;;;;;;;;5055801;28;20005;-80
2023/01/02 07:07:34;;;;;;;1.25;0.93;;;;;;;;;;5057414;28;20368;-80
2023/01/02 07:10:00;;;;;;;1.80;1.00;;;;;;;;;;5053486;28;20038;-80
2023/01/02 07:12:25;;;;;;;2.20;1.13;;;;;;;;;;5062838;28;20032;-80
2023/01/02 07:14:50;;;;;;;2.22;1.30;;;;;;;;;;5065116;28;20025;-80
2023/01/02 07:17:15;;;;;;;2.15;1.25;;;;;;;;;;5051703;28;20227;-81
2023/01/02 07:19:40;;;;;;;1.50;1.08;;;;;;;;;;5064269;28;20093;-80
2023/01/02 07:22:05;;;;;;;1.90;1.25;;;;;;;;;;5069137;28;20829;-80
2023/01/02 07:24:31;;;;;;;2.65;1.50;;;;;;;;;;5069757;28;20017;-80
2023/01/02 07:26:56;;;;;;;2.58;1.35;;;;;;;;;;5071133;28;20015;-81
2023/01/02 07:29:21;;;;;;;4.28;1.80;;;;;;;;;;5071408;28;20448;-80
2023/01/02 07:31:46;;;;;;;5.35;1.90;;;;;;;;;;5055205;28;20017;-80
2023/01/02 07:34:11;;;;;;;3.90;1.55;;;;;;;;;;5058202;28;20090;-80
2023/01/02 07:36:37;;;;;;;2.58;1.60;;;;;;;;;;5052983;28;20040;-80
2023/01/02 07:39:02;;;;;;;5.00;2.38;;;;;;;;;;5054528;28;20021;-81
2023/01/02 07:41:27;;;;;;;5.78;2.92;;;;;;;;;;5050449;28;20473;-81
2023/01/02 07:43:54;;;;;;;8.43;3.30;;;;;;;;;;5047585;28;20495;-81
2023/01/02 07:46:19;;;;;;;9.00;3.38;;;;;;;;;;5057476;28;20364;-80
2023/01/02 07:48:44;;;;;;;9.55;3.90;;;;;;;;;;5053864;28;20025;-80
2023/01/02 07:51:10;;;;;;;12.10;4.45;;;;;;;;;;5052489;28;20115;-80
2023/01/02 07:53:37;;;;;;;11.50;5.00;;;;;;;;;;5053352;28;20137;-80
2023/01/02 07:56:02;;;;;;;11.45;4.38;;;;;;;;;;5057460;28;20025;-80
2023/01/02 07:58:28;;;;;;;12.73;4.15;;;;;;;;;;5055692;28;20154;-81
2023/01/02 08:00:53;;;;;;;9.43;4.68;;;;;;;;;;5053532;28;20090;-81
2023/01/02 08:03:18;;;;;;;12.70;6.05;;;;;;;;;;5059179;28;20071;-81
2023/01/02 08:05:44;;;;;;;12.00;5.15;;;;;;;;;;5064844;28;20017;-81
2023/01/02 08:08:09;;;;;;;13.23;4.90;;;;;;;;;;5055902;28;20554;-81
2023/01/02 08:10:37;;;;;;;10.95;4.97;;;;;;;;;;5057131;28;20036;-81
2023/01/02 08:13:03;;;;;;;13.10;5.70;;;;;;;;;;5058941;28;20029;-80
2023/01/02 08:15:29;;;;;;;12.55;5.75;;;;;;;;;;5064560;28;20028;-80
2023/01/02 08:17:55;;;;;;;12.60;5.60;;;;;;;;;;5064572;28;20446;-80
2023/01/02 08:20:20;;;;;;;11.05;4.90;;;;;;;;;;5071325;28;20744;-80
2023/01/02 08:22:45;;;;;;;10.75;5.05;;;;;;;;;;5055798;28;20120;-80
2023/01/02 08:25:10;;;;;;;11.68;5.18;;;;;;;;;;5060372;28;20091;-79
2023/01/02 08:27:36;;;;;;;12.80;5.07;;;;;;;;;;5047593;28;20021;-80
2023/01/02 08:30:02;;;;;;;10.48;4.70;;;;;;;;;;5054598;28;20487;-80
2023/01/02 08:32:27;;;;;;;12.82;5.15;;;;;;;;;;5050342;28;20024;-80
2023/01/02 08:34:52;;;;;;;11.95;4.90;;;;;;;;;;5063056;28;20098;-80
2023/01/02 08:37:17;;;;;;;10.77;4.95;;;;;;;;;;5065254;28;20427;-80
2023/01/02 08:39:43;;;;;;;12.32;4.03;;;;;;;;;;5050264;28;20025;-80
2023/01/02 08:42:08;;;;;;;11.27;5.47;;;;;;;;;;5053562;28;20032;-80
2023/01/02 08:44:34;;;;;;;11.55;5.35;;;;;;;;;;5049453;28;20618;-80
2023/01/02 08:46:59;;;;;;;11.40;4.68;;;;;;;;;;5059345;28;20349;-80
2023/01/02 08:49:24;;;;;;;11.93;5.00;;;;;;;;;;5060590;28;20017;-79
2023/01/02 08:51:49;;;;;;;10.00;4.75;;;;;;;;;;5070906;28;20024;-80
2023/01/02 08:54:15;;;;;;;11.30;5.20;;;;;;;;;;5066483;28;20021;-80
2023/01/02 08:56:41;;;;;;;12.07;4.57;;;;;;;;;;5051239;28;20441;-80
2023/01/02 08:59:07;;;;;;;16.00;5.70;;;;;;;;;;5062377;28;20051;-80
2023/01/02 09:01:33;;;;;;;9.98;4.65;;;;;;;;;;5056994;28;20103;-80
2023/01/02 09:03:59;;;;;;;11.43;5.70;;;;;;;;;;5072091;28;20103;-80
2023/01/02 09:06:25;;;;;;;13.95;4.82;;;;;;;;;;5052354;28;20043;-80
2023/01/02 09:08:54;;;;;;;11.75;5.70;;;;;;;;;;5049135;28;20023;-80
2023/01/02 09:11:27;;;;;;;12.20;5.65;;;;;;;;;;5052451;28;20021;-80
2023/01/02 09:13:52;;;;;;;11.60;5.13;;;;;;;;;;5052693;28;20104;-80
2023/01/02 09:16:17;;;;;;;16.75;5.82;;;;;;;;;;5049748;28;20160;-80
2023/01/02 09:18:43;;;;;;;12.98;5.10;;;;;;;;;;5050818;28;20210;-80
2023/01/02 09:21:08;;;;;;;12.70;5.00;;;;;;;;;;5051117;28;20422;-80
2023/01/02 09:23:34;;;;;;;15.98;6.60;;;;;;;;;;5068987;28;20032;-80
2023/01/02 09:25:59;;;;;;;15.80;5.68;;;;;;;;;;5063784;28;20021;-80
2023/01/02 09:28:25;;;;;;;16.95;5.90;;;;;;;;;;5072600;28;20158;-80
2023/01/02 09:30:50;;;;;;;13.48;5.40;;;;;;;;;;5071887;28;20058;-80
2023/01/02 09:33:15;;;;;;;12.45;5.43;;;;;;;;;;5059707;28;20087;-80
2023/01/02 09:35:40;;;;;;;15.27;6.18;;;;;;;;;;5064517;28;20473;-80
2023/01/02 09:38:06;;;;;;;15.98;6.13;;;;;;;;;;5057517;28;20465;-80
2023/01/02 09:40:32;;;;;;;13.00;5.63;;;;;;;;;;5052050;28;20484;-80
2023/01/02 09:42:57;;;;;;;12.88;5.65;;;;;;;;;;5060934;28;20078;-80
2023/01/02 09:45:23;;;;;;;13.90;6.45;;;;;;;;;;5053729;28;20435;-80
2023/01/02 09:47:49;;;;;;;15.77;5.93;;;;;;;;;;5070823;28;20030;-80
2023/01/02 09:50:21;;;;;;;13.00;6.10;;;;;;;;;;5068649;28;20044;-80
2023/01/02 09:52:50;;;;;;;15.38;6.72;;;;;;;;;;5067727;28;20424;-80
2023/01/02 09:55:41;;;;;;;15.43;6.07;;;;;;;;;;5071357;28;20467;-80
2023/01/02 09:58:09;;;;;;;14.20;6.15;;;;;;;;;;5069392;28;20033;-80
2023/01/02 10:00:37;;;;;;;12.18;5.93;;;;;;;;;;5070819;28;20031;-80
2023/01/02 10:03:21;;;;;;;12.75;5.75;;;;;;;;;;5070088;28;20131;-81
2023/01/02 10:05:58;;;;;;;13.70;5.82;;;;;;;;;;5067874;28;20032;-80
2023/01/02 10:08:42;;;;;;;15.32;6.40;;;;;;;;;;5059690;28;20025;-80
2023/01/02 10:11:22;;;;;;;15.32;6.43;;;;;;;;;;5063058;28;20560;-80
2023/01/02 10:14:01;;;;;;;14.30;5.72;;;;;;;;;;5064329;28;20021;-81
2023/01/02 10:16:36;;;;;;;10.65;4.85;;;;;;;;;;5059439;28;20047;-81
2023/01/02 10:19:03;;;;;;;9.70;4.53;;;;;;;;;;5082795;28;20082;-81
2023/01/02 10:21:33;;;;;;;8.23;4.15;;;;;;;;;;5067823;28;20049;-81
2023/01/02 10:24:04;;;;;;;10.10;4.65;;;;;;;;;;5057326;28;20079;-81
2023/01/02 10:26:34;;;;;;;11.83;5.60;;;;;;;;;;5055609;28;20030;-81
2023/01/02 10:29:03;;;;;;;10.57;4.88;;;;;;;;;;5070433;28;20097;-81
2023/01/02 10:31:45;;;;;;;10.02;4.57;;;;;;;;;;5058028;28;20029;-81
2023/01/02 10:34:22;;;;;;;8.77;4.65;;;;;;;;;;5053889;28;20009;-81
2023/01/02 10:36:48;;;;;;;7.45;3.72;;;;;;;;;;5064504;28;20019;-81
2023/01/02 10:39:18;;;;;;;10.10;4.70;;;;;;;;;;5070511;28;20012;-81
2023/01/02 10:41:46;;;;;;;7.43;3.42;;;;;;;;;;5064860;28;20379;-81
2023/01/02 10:44:15;;;;;;;7.43;3.22;;;;;;;;;;5066028;28;20009;-81
2023/01/02 10:46:40;;;;;;;6.93;3.97;;;;;;;;;;5061665;28;20198;-81
2023/01/02 10:49:10;;;;;;;7.25;3.63;;;;;;;;;;5070268;28;20200;-81
2023/01/02 10:51:37;;;;;;;6.38;3.40;;;;;;;;;;5070480;28;20028;-81
2023/01/02 10:54:02;;;;;;;5.95;3.17;;;;;;;;;;5070299;28;20103;-81
2023/01/02 10:56:29;;;;;;;5.35;3.10;;;;;;;;;;5060646;28;20108;-81
2023/01/02 10:58:54;;;;;;;6.22;3.97;;;;;;;;;;5065370;28;20073;-81
2023/01/02 11:01:20;;;;;;;5.35;3.20;;;;;;;;;;5050048;28;20059;-81
2023/01/02 11:03:56;;;;;;;7.35;3.40;;;;;;;;;;5062012;28;20571;-81
2023/01/02 11:06:21;;;;;;;9.15;3.85;;;;;;;;;;5069907;28;20028;-81
2023/01/02 11:08:58;;;;;;;7.55;4.05;;;;;;;;;;5070088;28;20095;-81
2023/01/02 11:11:24;;;;;;;7.82;3.20;;;;;;;;;;5069137;28;20089;-81
2023/01/02 11:13:51;;;;;;;5.65;3.15;;;;;;;;;;5058117;28;20100;-81
2023/01/02 11:16:17;;;;;;;5.13;3.22;;;;;;;;;;5072813;28;20020;-81
2023/01/02 11:18:49;;;;;;;5.97;3.15;;;;;;;;;;5059252;28;20487;-81
2023/01/02 11:21:22;;;;;;;5.43;2.75;;;;;;;;;;5076018;28;20021;-81
2023/01/02 11:23:48;;;;;;;4.95;3.17;;;;;;;;;;5073879;28;20032;-81
2023/01/02 11:26:19;;;;;;;5.45;2.90;;;;;;;;;;5074036;28;20008;-81
2023/01/02 11:28:45;;;;;;;8.10;3.15;;;;;;;;;;5063866;28;20074;-81
2023/01/02 11:31:12;;;;;;;4.05;2.33;;;;;;;;;;5073912;28;20017;-81
2023/01/02 11:33:38;;;;;;;5.63;2.72;;;;;;;;;;5073412;28;20363;-81
2023/01/02 11:36:03;;;;;;;10.05;2.83;;;;;;;;;;5073860;28;20016;-81
2023/01/02 11:38:47;;;;;;;6.88;1.98;;;;;;;;;;5073683;28;20079;-81
2023/01/02 11:41:18;;;;;;;2.80;1.40;;;;;;;;;;5073642;28;20023;-81
2023/01/02 11:43:50;;;;;;;3.73;1.60;;;;;;;;;;5062691;28;20025;-81
2023/01/02 11:46:23;;;;;;;3.95;1.55;;;;;;;;;;5050496;28;20297;-81
2023/01/02 11:48:49;;;;;;;2.30;1.80;;;;;;;;;;5052828;28;20021;-81
2023/01/02 11:51:16;;;;;;;3.88;1.73;;;;;;;;;;5070158;28;20490;-81
2023/01/02 11:53:44;;;;;;;5.25;1.83;;;;;;;;;;5056885;28;20052;-81
2023/01/02 11:56:14;;;;;;;3.67;2.20;;;;;;;;;;5062569;28;20483;-81
2023/01/02 11:58:59;;;;;;;5.40;2.03;;;;;;;;;;5061941;28;20468;-81
2023/01/02 12:01:46;;;;;;;5.80;1.85;;;;;;;;;;5055140;28;20036;-81
2023/01/02 12:04:12;;;;;;;2.75;1.38;;;;;;;;;;5051221;28;20048;-81
2023/01/02 12:06:40;;;;;;;3.42;1.73;;;;;;;;;;5056613;28;20052;-81
2023/01/02 12:09:10;;;;;;;7.18;2.72;;;;;;;;;;5062035;28;20082;-82
2023/01/02 12:11:35;;;;;;;6.35;2.35;;;;;;;;;;5062439;28;20473;-81
2023/01/02 12:14:22;;;;;;;5.25;2.47;;;;;;;;;;5072829;28;20024;-82
2023/01/02 12:16:50;;;;;;;4.93;2.40;;;;;;;;;;5051710;28;20064;-82
2023/01/02 12:19:18;;;;;;;4.15;2.40;;;;;;;;;;5052777;28;20078;-81
2023/01/02 12:21:49;;;;;;;11.50;2.67;;;;;;;;;;5063925;28;20024;-82
2023/01/02 12:24:14;;;;;;;5.97;3.08;;;;;;;;;;5072501;28;20013;-82
2023/01/02 12:26:58;;;;;;;4.53;2.03;;;;;;;;;;5060423;28;21250;-82
2023/01/02 12:29:56;;;;;;;5.30;2.38;;;;;;;;;;5051693;28;20025;-82
2023/01/02 12:32:24;;;;;;;4.45;2.42;;;;;;;;;;5077861;28;20384;-82
2023/01/02 12:35:02;;;;;;;4.88;2.10;;;;;;;;;;5052963;28;20491;-83
2023/01/02 12:37:27;;;;;;;5.70;2.35;;;;;;;;;;5063036;28;20028;-82
2023/01/02 12:40:01;;;;;;;4.82;2.25;;;;;;;;;;5052454;28;20035;-82
2023/01/02 12:42:53;;;;;;;3.70;2.33;;;;;;;;;;5063046;28;20112;-82
2023/01/02 12:45:37;;;;;;;2.97;1.80;;;;;;;;;;5059571;28;20033;-83
2023/01/02 12:48:08;;;;;;;6.10;2.22;;;;;;;;;;5059444;28;20021;-82
2023/01/02 12:50:50;;;;;;;4.72;2.15;;;;;;;;;;5062217;28;20013;-82
2023/01/02 12:53:34;;;;;;;8.13;1.80;;;;;;;;;;5055378;28;20031;-82
2023/01/02 12:55:59;;;;;;;4.80;1.88;;;;;;;;;;5063615;28;20032;-81
2023/01/02 12:58:27;;;;;;;5.20;2.25;;;;;;;;;;5049922;28;20396;-81
2023/01/02 13:00:56;;;;;;;3.45;1.80;;;;;;;;;;5051796;28;20028;-82
2023/01/02 13:03:30;;;;;;;3.20;2.00;;;;;;;;;;5060965;28;20479;-82
2023/01/02 13:06:03;;;;;;;4.00;1.60;;;;;;;;;;5073697;28;20044;-82
2023/01/02 13:08:34;;;;;;;7.10;1.90;;;;;;;;;;5066801;28;20040;-82
2023/01/02 13:11:01;;;;;;;2.83;1.90;;;;;;;;;;5064885;28;20020;-82
2023/01/02 13:13:29;;;;;;;5.70;2.20;;;;;;;;;;5067301;28;20131;-82
2023/01/02 13:15:56;;;;;;;6.55;2.13;;;;;;;;;;5054321;28;20028;-82
2023/01/02 13:18:46;;;;;;;2.55;1.70;;;;;;;;;;5061192;28;20047;-82
2023/01/02 13:21:15;;;;;;;4.80;1.88;;;;;;;;;;5072053;28;20055;-82
2023/01/02 13:23:45;;;;;;;4.93;1.70;;;;;;;;;;5053097;28;20108;-83
2023/01/02 13:26:19;;;;;;;3.22;1.80;;;;;;;;;;5054886;28;20035;-82
2023/01/02 13:28:53;;;;;;;12.00;2.15;;;;;;;;;;5069212;28;20027;-82
2023/01/02 13:31:19;;;;;;;4.50;2.25;;;;;;;;;;5065020;28;20086;-81
2023/01/02 13:33:45;;;;;;;4.05;1.92;;;;;;;;;;5068851;28;20020;-82
2023/01/02 13:36:17;;;;;;;3.75;1.63;;;;;;;;;;5063123;28;20024;-82
2023/01/02 13:38:43;;;;;;;4.30;1.75;;;;;;;;;;5065969;28;20032;-82
2023/01/02 13:41:12;;;;;;;10.15;2.50;;;;;;;;;;5061644;28;20032;-82
2023/01/02 13:43:38;;;;;;;15.30;4.47;;;;;;;;;;5072371;28;20082;-82
2023/01/02 13:46:03;;;;;;;13.30;4.55;;;;;;;;;;5054385;28;20016;-82
2023/01/02 13:48:39;;;;;;;6.20;2.80;;;;;;;;;;5051670;28;20021;-82
2023/01/02 13:51:06;;;;;;;6.03;2.30;;;;;;;;;;5062076;28;20020;-83
2023/01/02 13:53:31;;;;;;;6.20;2.53;;;;;;;;;;5057149;28;20033;-82
2023/01/02 13:56:02;;;;;;;6.07;2.30;;;;;;;;;;5072717;28;20065;-82
2023/01/02 13:58:40;;;;;;;4.63;2.13;;;;;;;;;;5064771;28;20036;-82
2023/01/02 14:01:21;;;;;;;6.97;2.22;;;;;;;;;;5062937;28;20016;-82
2023/01/02 14:03:46;;;;;;;5.60;2.55;;;;;;;;;;5072035;28;20031;-82
2023/01/02 14:06:31;;;;;;;5.22;2.20;;;;;;;;;;5070980;28;20478;-81
2023/01/02 14:09:02;;;;;;;2.85;2.03;;;;;;;;;;5062421;28;20140;-81
2023/01/02 14:11:30;;;;;;;5.73;2.50;;;;;;;;;;5051507;28;20111;-82
2023/01/02 14:13:56;;;;;;;4.20;2.40;;;;;;;;;;5059921;28;20430;-82
2023/01/02 14:16:21;;;;;;;6.05;2.47;;;;;;;;;;5065059;28;20029;-82
2023/01/02 14:19:05;;;;;;;10.32;2.63;;;;;;;;;;5045934;28;20031;-82
2023/01/02 14:21:35;;;;;;;5.30;0.95;;;;;;;;;;5058680;28;20079;-81
2023/01/02 14:24:01;;;;;;;0.73;0.35;;;;;;;;;;5070243;28;20418;-80
2023/01/02 14:26:31;;;;;;;2.55;0.80;;;;;;;;;;5071203;28;20141;-81
2023/01/02 14:28:58;;;;;;;0.75;0.63;;;;;;;;;;5059318;28;20025;-80
2023/01/02 14:31:30;;;;;;;3.20;0.60;;;;;;;;;;5052845;28;20388;-80
2023/01/02 14:33:55;;;;;;;;;;;;;;;;;;5058396;28;20032;-81
2023/01/02 14:36:32;;;;;;;0.90;0.45;;;;;;;;;;5062509;28;19908;-80
2023/01/02 14:38:58;;;;;;;3.92;0.50;;;;;;;;;;5070250;28;20244;-80
2023/01/02 14:44:50;;;;;;;2.45;0.90;;;;;;;;;;5011726;28;20091;-80
2023/01/02 14:47:18;;;;;;;3.03;1.30;;;;;;;;;;5059044;28;20032;-79
2023/01/02 14:49:44;;;;;;;1.40;1.10;;;;;;;;;;5071755;28;20461;-79
2023/01/02 14:52:16;;;;;;;2.22;1.20;;;;;;;;;;5071266;28;20775;-80